Time;durP1;ratioP1;P1;durP2;ratioP2;P2;SDS_P1;SDS_P2;PMS_P1;PMS_P2;Temp;Humidity;BMP_temperature;BMP_pressure;BME280_temperature;BME280_humidity;BME280_pressure;Samples;Min_cycle;Max_cycle;Signal;HPM_P1;HPM_P2
2021/09/12 00:02:21;;;;;;;6.43;4.93;;;16.50;96.20;;;;;;5031979;28;20177;-76
2021/09/12 00:04:47;;;;;;;7.80;5.10;;;16.40;96.30;;;;;;5031503;28;20630;-77
2021/09/12 00:07:13;;;;;;;7.33;4.67;;;16.40;96.30;;;;;;5030743;28;20189;-76
2021/09/12 00:09:38;;;;;;;8.97;5.30;;;16.40;96.30;;;;;;5018425;28;20192;-77
2021/09/12 00:12:05;;;;;;;7.77;4.43;;;16.30;96.20;;;;;;5032254;28;20196;-77
2021/09/12 00:14:31;;;;;;;5.90;4.33;;;16.30;96.30;;;;;;5033293;28;20218;-75
2021/09/12 00:16:57;;;;;;;10.23;4.90;;;16.20;96.40;;;;;;5035371;28;20841;-74
2021/09/12 00:19:24;;;;;;;8.43;4.23;;;16.10;96.50;;;;;;5034485;28;20771;-75
2021/09/12 00:21:50;;;;;;;9.43;5.43;;;16.10;96.60;;;;;;5033652;28;20667;-75
2021/09/12 00:24:16;;;;;;;7.07;4.73;;;16.10;96.60;;;;;;5034161;28;20434;-75
2021/09/12 00:26:42;;;;;;;7.27;5.10;;;16.10;96.60;;;;;;5034607;28;20419;-75
2021/09/12 00:29:08;;;;;;;7.17;4.93;;;16.10;96.60;;;;;;5034444;28;20263;-75
2021/09/12 00:31:33;;;;;;;6.50;4.07;;;16.00;96.80;;;;;;5034749;28;20210;-74
2021/09/12 00:33:59;;;;;;;6.50;4.70;;;16.10;96.70;;;;;;5034206;28;20213;-75
2021/09/12 00:36:25;;;;;;;7.33;5.07;;;16.00;96.70;;;;;;5034112;28;20243;-75
2021/09/12 00:38:50;;;;;;;5.77;3.87;;;16.00;96.80;;;;;;5034044;28;20196;-74
2021/09/12 00:41:16;;;;;;;6.47;4.50;;;16.00;96.70;;;;;;5032475;28;20177;-75
2021/09/12 00:43:42;;;;;;;7.27;4.53;;;16.00;96.80;;;;;;5032980;28;20199;-74
2021/09/12 00:46:08;;;;;;;8.90;4.97;;;15.90;96.70;;;;;;5032674;28;20252;-75
2021/09/12 00:48:35;;;;;;;7.00;4.63;;;15.90;96.80;;;;;;5031556;28;20659;-76
2021/09/12 00:51:01;;;;;;;10.77;5.23;;;15.90;97.00;;;;;;5032093;28;20185;-79
2021/09/12 00:53:31;;;;;;;9.10;4.67;;;15.90;97.00;;;;;;5030378;28;20432;-78
2021/09/12 00:56:00;;;;;;;7.23;4.53;;;15.90;97.00;;;;;;5030157;28;20449;-78
2021/09/12 00:58:28;;;;;;;8.57;4.97;;;15.90;96.90;;;;;;5030996;28;20413;-77
2021/09/12 01:00:53;;;;;;;8.10;4.83;;;15.80;97.00;;;;;;5031841;28;20455;-75
2021/09/12 01:03:20;;;;;;;9.43;5.83;;;15.80;97.10;;;;;;5033892;28;20440;-76
2021/09/12 01:05:45;;;;;;;6.60;4.70;;;15.80;97.10;;;;;;5033221;28;20436;-76
2021/09/12 01:08:11;;;;;;;8.83;4.60;;;15.70;97.20;;;;;;5033222;28;20414;-75
2021/09/12 01:10:39;;;;;;;7.27;4.50;;;15.70;97.20;;;;;;5033427;28;20182;-75
2021/09/12 01:13:05;;;;;;;9.23;4.37;;;15.80;97.20;;;;;;5033713;28;20411;-75
2021/09/12 01:15:31;;;;;;;12.57;4.90;;;15.80;97.20;;;;;;5033372;28;20475;-75
2021/09/12 01:17:57;;;;;;;6.40;4.47;;;15.70;97.10;;;;;;5034067;28;20189;-75
2021/09/12 01:20:23;;;;;;;7.40;5.17;;;15.60;97.20;;;;;;5032684;28;20424;-75
2021/09/12 01:22:49;;;;;;;6.90;5.37;;;15.60;97.40;;;;;;5032753;28;20237;-76
2021/09/12 01:25:15;;;;;;;9.00;5.00;;;15.60;97.50;;;;;;5031534;28;20444;-75
2021/09/12 01:27:41;;;;;;;7.60;5.17;;;15.60;97.50;;;;;;5032876;28;20479;-75
2021/09/12 01:30:08;;;;;;;8.83;4.40;;;15.60;97.40;;;;;;5031383;28;20206;-76
2021/09/12 01:32:34;;;;;;;7.50;4.90;;;15.60;97.40;;;;;;5032893;28;20185;-74
2021/09/12 01:34:59;;;;;;;10.13;5.17;;;15.60;97.30;;;;;;5032394;28;21319;-75
2021/09/12 01:37:25;;;;;;;8.40;5.20;;;15.60;97.50;;;;;;5032709;28;20274;-76
2021/09/12 01:39:51;;;;;;;8.20;4.70;;;15.50;97.50;;;;;;5032289;28;20181;-75
2021/09/12 01:42:16;;;;;;;8.33;5.27;;;15.50;97.40;;;;;;5032482;28;20657;-75
2021/09/12 01:44:46;;;;;;;5.93;4.67;;;15.50;97.50;;;;;;5031265;28;20209;-75
2021/09/12 01:47:12;;;;;;;9.77;5.20;;;15.50;97.50;;;;;;5032938;28;20191;-75
2021/09/12 01:49:38;;;;;;;10.50;5.40;;;15.50;97.50;;;;;;5032470;28;20445;-75
2021/09/12 01:52:05;;;;;;;7.57;4.73;;;15.50;97.50;;;;;;5030995;28;20651;-76
2021/09/12 01:54:30;;;;;;;8.67;5.57;;;15.50;97.50;;;;;;5031592;28;20372;-75
2021/09/12 01:56:56;;;;;;;7.17;4.83;;;15.40;97.50;;;;;;5030907;28;20988;-76
2021/09/12 01:59:22;;;;;;;6.13;4.40;;;15.40;97.50;;;;;;5031806;28;20185;-75
2021/09/12 02:01:47;;;;;;;6.90;4.73;;;15.40;97.60;;;;;;5032204;28;20236;-75
2021/09/12 02:04:13;;;;;;;8.30;4.93;;;15.40;97.60;;;;;;5031633;28;20550;-75
2021/09/12 02:06:39;;;;;;;8.30;4.90;;;15.30;97.60;;;;;;5032408;28;20189;-75
2021/09/12 02:09:05;;;;;;;7.53;4.83;;;15.30;97.60;;;;;;5032257;28;20187;-75
2021/09/12 02:11:31;;;;;;;9.73;5.03;;;15.30;97.50;;;;;;5032002;28;20635;-75
2021/09/12 02:13:58;;;;;;;7.50;5.30;;;15.30;97.60;;;;;;5029664;28;20471;-76
2021/09/12 02:16:24;;;;;;;10.13;5.50;;;15.20;97.70;;;;;;5031430;28;20679;-76
2021/09/12 02:18:50;;;;;;;8.53;5.67;;;15.20;97.60;;;;;;5030225;28;20416;-76
2021/09/12 02:21:16;;;;;;;7.93;5.30;;;15.20;97.70;;;;;;5027962;28;20426;-76
2021/09/12 02:23:42;;;;;;;8.73;5.90;;;15.20;97.70;;;;;;5031241;28;20518;-75
2021/09/12 02:26:08;;;;;;;8.87;6.03;;;15.20;97.70;;;;;;5026452;28;20663;-75
2021/09/12 02:28:34;;;;;;;10.10;5.33;;;15.20;97.80;;;;;;5031524;28;20429;-77
2021/09/12 02:31:00;;;;;;;7.77;5.47;;;15.20;97.80;;;;;;5030446;28;20818;-76
2021/09/12 02:33:26;;;;;;;9.33;5.40;;;15.20;97.70;;;;;;5031258;28;20251;-78
2021/09/12 02:35:52;;;;;;;7.30;4.73;;;15.20;97.60;;;;;;5030486;28;20226;-76
2021/09/12 02:38:17;;;;;;;9.33;5.73;;;15.10;97.50;;;;;;5031002;28;20431;-76
2021/09/12 02:40:43;;;;;;;9.67;5.40;;;15.10;97.50;;;;;;5030885;28;20455;-75
2021/09/12 02:43:09;;;;;;;11.80;5.87;;;15.10;97.30;;;;;;5031342;28;20617;-77
2021/09/12 02:45:35;;;;;;;9.57;6.20;;;15.00;97.50;;;;;;5024214;28;20220;-75
2021/09/12 02:48:01;;;;;;;11.33;6.33;;;15.00;97.50;;;;;;5031111;28;20723;-76
2021/09/12 02:50:27;;;;;;;8.70;5.63;;;15.00;97.50;;;;;;5029198;28;20432;-75
2021/09/12 02:52:53;;;;;;;8.20;5.37;;;15.00;97.70;;;;;;5031199;28;20493;-75
2021/09/12 02:55:19;;;;;;;13.23;5.43;;;14.90;97.50;;;;;;5028322;28;20213;-76
2021/09/12 02:57:44;;;;;;;9.23;5.70;;;14.90;97.60;;;;;;5030930;28;20189;-76
2021/09/12 03:00:10;;;;;;;8.37;5.20;;;14.80;97.60;;;;;;5030777;28;20185;-76
2021/09/12 03:02:36;;;;;;;10.00;5.70;;;14.80;97.70;;;;;;5031180;28;20612;-76
2021/09/12 03:05:02;;;;;;;9.47;6.10;;;14.70;97.80;;;;;;5030029;28;20455;-76
2021/09/12 03:07:28;;;;;;;11.50;5.87;;;14.60;97.70;;;;;;5029529;28;20185;-77
2021/09/12 03:09:53;;;;;;;9.60;6.03;;;14.60;97.80;;;;;;5029853;28;20269;-76
2021/09/12 03:12:19;;;;;;;10.90;5.50;;;14.60;97.80;;;;;;5031225;28;20272;-78
2021/09/12 03:14:45;;;;;;;12.07;6.07;;;14.60;97.80;;;;;;5031641;28;20224;-77
2021/09/12 03:17:12;;;;;;;9.27;6.03;;;14.70;97.60;;;;;;5029387;28;20200;-78
2021/09/12 03:19:38;;;;;;;12.07;6.00;;;14.60;97.60;;;;;;5030105;28;20428;-76
2021/09/12 03:22:04;;;;;;;10.73;5.70;;;14.70;97.60;;;;;;5029975;28;20424;-75
2021/09/12 03:24:30;;;;;;;13.93;6.20;;;14.60;97.60;;;;;;5030021;28;20452;-77
2021/09/12 03:26:56;;;;;;;9.27;6.07;;;14.60;97.70;;;;;;5030640;28;20431;-78
2021/09/12 03:29:21;;;;;;;9.83;5.83;;;14.60;97.80;;;;;;5030365;28;20434;-74
2021/09/12 03:31:47;;;;;;;11.40;5.77;;;14.60;97.80;;;;;;5030401;28;20195;-76
2021/09/12 03:34:13;;;;;;;10.77;6.30;;;14.60;97.80;;;;;;5029474;28;20232;-75
2021/09/12 03:36:39;;;;;;;10.40;6.10;;;14.50;97.70;;;;;;5030313;28;20280;-75
2021/09/12 03:39:04;;;;;;;9.20;5.30;;;14.50;97.70;;;;;;5030061;28;20193;-75
2021/09/12 03:41:30;;;;;;;11.73;5.70;;;14.50;97.80;;;;;;5023111;28;20283;-75
2021/09/12 03:43:56;;;;;;;9.90;5.50;;;14.50;97.80;;;;;;5029473;28;20434;-77
2021/09/12 03:46:22;;;;;;;8.87;5.80;;;14.50;97.80;;;;;;5029832;28;20283;-75
2021/09/12 03:48:48;;;;;;;9.30;5.57;;;14.50;97.60;;;;;;5029128;28;20193;-77
2021/09/12 03:51:13;;;;;;;10.87;5.90;;;14.50;97.60;;;;;;5028746;28;20648;-77
2021/09/12 03:53:39;;;;;;;14.47;6.20;;;14.50;97.70;;;;;;5025776;28;20469;-75
2021/09/12 03:56:05;;;;;;;6.67;5.13;;;14.40;97.70;;;;;;5025269;28;20443;-75
2021/09/12 03:58:31;;;;;;;8.17;5.20;;;14.40;97.70;;;;;;5029829;28;20182;-75
2021/09/12 04:00:57;;;;;;;12.93;7.60;;;14.40;97.70;;;;;;5029801;28;20462;-76
2021/09/12 04:03:22;;;;;;;9.30;6.03;;;14.40;97.60;;;;;;5029902;28;20616;-79
2021/09/12 04:05:48;;;;;;;8.80;5.50;;;14.30;97.60;;;;;;5028067;28;20209;-76
2021/09/12 04:08:14;;;;;;;9.70;5.07;;;14.30;97.70;;;;;;5030066;28;20277;-77
2021/09/12 04:10:40;;;;;;;8.00;5.77;;;14.30;97.80;;;;;;5029958;28;20187;-75
2021/09/12 04:13:05;;;;;;;9.90;6.10;;;14.20;97.80;;;;;;5029854;28;20185;-77
2021/09/12 04:15:31;;;;;;;11.90;6.03;;;14.10;97.90;;;;;;5029196;28;20628;-78
2021/09/12 04:17:57;;;;;;;10.80;6.20;;;14.10;97.90;;;;;;5030838;28;20213;-77
2021/09/12 04:20:23;;;;;;;9.17;5.70;;;14.10;98.10;;;;;;5029747;28;20612;-76
2021/09/12 04:22:48;;;;;;;12.13;6.77;;;14.10;98.10;;;;;;5029215;28;20181;-76
2021/09/12 04:25:14;;;;;;;7.90;5.53;;;14.10;98.10;;;;;;5030114;28;20560;-78
2021/09/12 04:27:40;;;;;;;8.43;5.27;;;14.10;98.00;;;;;;5029900;28;20663;-76
2021/09/12 04:30:08;;;;;;;11.37;6.23;;;14.10;97.70;;;;;;5029169;28;20193;-77
2021/09/12 04:32:34;;;;;;;10.00;6.00;;;14.10;97.70;;;;;;5029857;28;20391;-78
2021/09/12 04:34:59;;;;;;;9.17;5.90;;;14.00;97.70;;;;;;5029134;28;20579;-77
2021/09/12 04:37:25;;;;;;;9.37;5.53;;;14.00;97.80;;;;;;5029484;28;20353;-77
2021/09/12 04:39:51;;;;;;;11.30;5.80;;;14.00;97.90;;;;;;5024347;28;20605;-76
2021/09/12 04:42:17;;;;;;;9.30;5.70;;;14.00;98.00;;;;;;5029573;28;20597;-76
2021/09/12 04:44:42;;;;;;;8.83;5.80;;;13.90;98.10;;;;;;5024110;28;20562;-77
2021/09/12 04:47:08;;;;;;;8.00;5.03;;;13.90;98.00;;;;;;5029753;28;20235;-78
2021/09/12 04:49:34;;;;;;;9.97;5.73;;;13.90;97.80;;;;;;5029254;28;20185;-77
2021/09/12 04:51:59;;;;;;;9.80;5.60;;;13.80;97.70;;;;;;5028656;28;20497;-77
2021/09/12 04:54:25;;;;;;;11.97;5.77;;;13.80;97.90;;;;;;5028875;28;20197;-79
2021/09/12 04:56:51;;;;;;;16.83;5.60;;;13.80;98.00;;;;;;5029980;28;20661;-78
2021/09/12 04:59:17;;;;;;;8.00;5.30;;;13.80;98.10;;;;;;5029397;28;20297;-77
2021/09/12 05:01:42;;;;;;;9.50;5.93;;;13.80;98.30;;;;;;5033364;28;20189;-76
2021/09/12 05:04:08;;;;;;;9.83;5.47;;;13.70;98.30;;;;;;5030411;28;20911;-76
2021/09/12 05:06:34;;;;;;;11.10;6.90;;;13.70;98.30;;;;;;5031774;28;20296;-76
2021/09/12 05:09:00;;;;;;;10.00;6.00;;;13.70;98.30;;;;;;5033022;28;20189;-76
2021/09/12 05:11:25;;;;;;;12.57;5.67;;;13.70;98.20;;;;;;5032977;28;20248;-77
2021/09/12 05:13:51;;;;;;;8.17;6.27;;;13.70;98.30;;;;;;5032200;28;20588;-76
2021/09/12 05:16:17;;;;;;;7.40;4.97;;;13.70;98.20;;;;;;5032830;28;20201;-76
2021/09/12 05:18:43;;;;;;;11.00;5.60;;;13.70;98.10;;;;;;5032748;28;20197;-76
2021/09/12 05:21:09;;;;;;;9.00;5.17;;;13.80;97.90;;;;;;5033021;28;20677;-75
2021/09/12 05:23:34;;;;;;;8.63;5.60;;;13.80;97.90;;;;;;5032599;28;20181;-75
2021/09/12 05:26:00;;;;;;;8.57;5.07;;;13.80;97.90;;;;;;5032511;28;20201;-76
2021/09/12 05:28:26;;;;;;;9.40;5.33;;;13.70;97.90;;;;;;5032589;28;20185;-77
2021/09/12 05:30:52;;;;;;;8.50;5.40;;;13.80;97.70;;;;;;5032301;28;20682;-75
2021/09/12 05:33:17;;;;;;;9.47;6.13;;;13.80;97.70;;;;;;5023519;28;20194;-75
2021/09/12 05:35:43;;;;;;;10.80;5.90;;;13.70;97.80;;;;;;5031730;28;20668;-76
2021/09/12 05:38:09;;;;;;;11.10;5.73;;;13.80;97.80;;;;;;5031274;28;20200;-77
2021/09/12 05:40:35;;;;;;;12.43;6.17;;;13.80;97.80;;;;;;5031247;28;20514;-77
2021/09/12 05:43:01;;;;;;;8.63;6.03;;;13.80;97.80;;;;;;5032500;28;20430;-77
2021/09/12 05:45:27;;;;;;;9.20;5.33;;;13.80;97.90;;;;;;5031652;28;20263;-75
2021/09/12 05:47:52;;;;;;;9.10;5.40;;;13.80;97.90;;;;;;5029299;28;20193;-76
2021/09/12 05:50:19;;;;;;;10.97;6.30;;;13.80;97.70;;;;;;5031127;28;20196;-75
2021/09/12 05:52:44;;;;;;;11.77;6.00;;;13.90;97.60;;;;;;5032576;28;20231;-77
2021/09/12 05:55:11;;;;;;;8.17;5.40;;;13.90;97.70;;;;;;5031058;28;20919;-75
2021/09/12 05:57:36;;;;;;;11.90;6.53;;;13.90;97.70;;;;;;5030815;28;20316;-75
2021/09/12 06:00:05;;;;;;;10.23;6.03;;;13.90;97.60;;;;;;5031581;28;20510;-76
2021/09/12 06:02:31;;;;;;;10.33;6.37;;;13.90;97.70;;;;;;5030802;28;20235;-76
2021/09/12 06:04:57;;;;;;;8.10;5.37;;;14.00;97.80;;;;;;5031189;28;20803;-76
2021/09/12 06:07:22;;;;;;;7.93;5.10;;;14.10;97.80;;;;;;5032848;28;20656;-77
2021/09/12 06:09:48;;;;;;;10.57;6.30;;;14.10;97.50;;;;;;5034621;28;20185;-76
2021/09/12 06:12:14;;;;;;;10.67;5.90;;;14.20;97.30;;;;;;5031318;28;20246;-75
2021/09/12 06:14:40;;;;;;;11.53;5.53;;;14.20;97.10;;;;;;5032667;28;20311;-76
2021/09/12 06:17:06;;;;;;;9.87;6.33;;;14.20;97.00;;;;;;5034181;28;20910;-76
2021/09/12 06:19:36;;;;;;;8.23;5.00;;;14.20;96.90;;;;;;5033371;28;20619;-76
2021/09/12 06:22:03;;;;;;;9.63;4.90;;;14.30;96.80;;;;;;5033060;28;20851;-76
2021/09/12 06:24:29;;;;;;;8.77;5.53;;;14.30;96.40;;;;;;5031513;28;20425;-76
2021/09/12 06:26:55;;;;;;;8.57;5.87;;;14.40;96.10;;;;;;5031868;28;20485;-75
2021/09/12 06:29:21;;;;;;;10.00;5.97;;;14.40;96.10;;;;;;5031817;28;20205;-78
2021/09/12 06:31:47;;;;;;;9.53;5.37;;;14.50;95.90;;;;;;5033464;28;20208;-76
2021/09/12 06:34:13;;;;;;;9.50;6.27;;;14.50;95.90;;;;;;5032414;28;20249;-76
2021/09/12 06:36:38;;;;;;;7.80;5.20;;;14.50;96.10;;;;;;5033735;28;20476;-75
2021/09/12 06:39:05;;;;;;;7.80;5.83;;;14.50;96.40;;;;;;5032413;28;20428;-76
2021/09/12 06:41:30;;;;;;;8.37;5.60;;;14.50;96.50;;;;;;5033399;28;20195;-75
2021/09/12 06:43:56;;;;;;;7.63;5.50;;;14.60;96.50;;;;;;5028545;28;20538;-75
2021/09/12 06:46:22;;;;;;;11.50;5.90;;;14.70;96.50;;;;;;5030926;28;20295;-76
2021/09/12 06:48:47;;;;;;;9.20;5.73;;;14.80;96.40;;;;;;5032829;28;20208;-76
2021/09/12 06:51:14;;;;;;;8.90;5.10;;;14.80;96.40;;;;;;5032831;28;20186;-76
2021/09/12 06:53:40;;;;;;;9.50;6.43;;;14.90;96.30;;;;;;5038857;28;20204;-76
2021/09/12 06:56:06;;;;;;;11.87;6.93;;;14.90;96.20;;;;;;5043676;28;20444;-75
2021/09/12 06:58:32;;;;;;;10.90;6.43;;;15.00;96.30;;;;;;5043943;28;20209;-73
2021/09/12 07:00:58;;;;;;;12.43;7.30;;;15.00;96.20;;;;;;5043675;28;20412;-74
2021/09/12 07:03:25;;;;;;;9.70;6.90;;;15.10;96.10;;;;;;5033351;28;20433;-75
2021/09/12 07:05:51;;;;;;;10.63;6.70;;;15.10;96.10;;;;;;5026927;28;20501;-76
2021/09/12 07:08:17;;;;;;;11.80;6.63;;;15.20;96.00;;;;;;5034423;28;20426;-75
2021/09/12 07:10:43;;;;;;;9.50;6.30;;;15.20;96.00;;;;;;5034411;28;20428;-74
2021/09/12 07:13:09;;;;;;;10.47;5.87;;;15.30;95.80;;;;;;5043659;28;20232;-74
2021/09/12 07:15:34;;;;;;;8.40;5.60;;;15.40;95.50;;;;;;5044660;28;20468;-76
2021/09/12 07:18:00;;;;;;;7.87;5.67;;;15.50;95.30;;;;;;5040763;28;20200;-76
2021/09/12 07:20:26;;;;;;;10.90;5.30;;;15.60;95.20;;;;;;5041700;28;20195;-74
2021/09/12 07:22:52;;;;;;;12.50;6.60;;;15.60;94.90;;;;;;5042777;28;20734;-76
2021/09/12 07:25:18;;;;;;;7.77;5.60;;;15.70;94.80;;;;;;5032742;28;20312;-76
2021/09/12 07:27:43;;;;;;;11.00;6.53;;;15.90;93.80;;;;;;5032805;28;20694;-76
2021/09/12 07:30:11;;;;;;;7.37;5.17;;;15.90;93.60;;;;;;5033221;28;20217;-77
2021/09/12 07:32:37;;;;;;;7.30;4.60;;;16.00;93.30;;;;;;5032293;28;20193;-75
2021/09/12 07:35:03;;;;;;;9.80;6.30;;;16.10;93.30;;;;;;5032645;28;20473;-75
2021/09/12 07:37:28;;;;;;;9.47;6.00;;;16.10;93.30;;;;;;5040077;28;20513;-76
2021/09/12 07:39:55;;;;;;;10.80;6.40;;;16.20;93.40;;;;;;5045065;28;20431;-76
2021/09/12 07:42:21;;;;;;;8.20;5.30;;;16.30;93.40;;;;;;5041662;28;20179;-75
2021/09/12 07:44:47;;;;;;;8.73;5.80;;;16.40;93.20;;;;;;5031497;28;20809;-73
2021/09/12 07:47:13;;;;;;;9.50;6.20;;;16.50;93.00;;;;;;5031101;28;20188;-74
2021/09/12 07:49:39;;;;;;;10.13;5.93;;;16.50;93.10;;;;;;5031853;28;20497;-73
2021/09/12 07:52:05;;;;;;;8.77;7.07;;;16.60;93.10;;;;;;5031198;28;20431;-73
2021/09/12 07:54:31;;;;;;;9.53;6.10;;;16.70;93.20;;;;;;5028768;28;20248;-74
2021/09/12 07:56:56;;;;;;;10.73;6.27;;;16.80;92.70;;;;;;5027781;28;21237;-73
2021/09/12 07:59:22;;;;;;;8.67;5.57;;;16.90;92.40;;;;;;5035659;28;20195;-73
2021/09/12 08:01:48;;;;;;;8.53;5.37;;;17.00;92.10;;;;;;5041160;28;20197;-73
2021/09/12 08:04:13;;;;;;;8.30;5.27;;;17.10;91.20;;;;;;5038651;28;20181;-72
2021/09/12 08:06:39;;;;;;;7.70;5.10;;;17.20;91.00;;;;;;5032590;28;20548;-72
2021/09/12 08:09:05;;;;;;;8.80;5.67;;;17.20;90.80;;;;;;5031745;28;20309;-72
2021/09/12 08:11:31;;;;;;;8.10;5.20;;;17.30;90.90;;;;;;5055909;28;20189;-81
2021/09/12 08:13:56;;;;;;;7.77;5.37;;;17.30;91.10;;;;;;5050455;28;20299;-74
2021/09/12 08:16:22;;;;;;;9.53;5.10;;;17.20;90.90;;;;;;5032641;28;20204;-75
2021/09/12 08:18:48;;;;;;;6.97;4.93;;;17.20;91.20;;;;;;5032102;28;20190;-75
2021/09/12 08:21:13;;;;;;;8.23;5.27;;;17.30;91.00;;;;;;5032789;28;20192;-74
2021/09/12 08:23:39;;;;;;;7.13;5.50;;;17.40;90.90;;;;;;5032470;28;20177;-75
2021/09/12 08:26:05;;;;;;;8.63;5.97;;;17.50;90.70;;;;;;5034535;28;20201;-74
2021/09/12 08:28:31;;;;;;;8.70;5.23;;;17.60;90.50;;;;;;5033027;28;20620;-75
2021/09/12 08:30:56;;;;;;;6.40;4.90;;;17.80;90.40;;;;;;5029885;28;20185;-75
2021/09/12 08:33:22;;;;;;;11.13;6.90;;;17.90;90.30;;;;;;5041740;28;20656;-74
2021/09/12 08:35:48;;;;;;;8.83;5.37;;;18.10;90.30;;;;;;5034898;28;20228;-74
2021/09/12 08:38:14;;;;;;;10.20;6.33;;;18.20;89.00;;;;;;5032581;28;20227;-76
2021/09/12 08:40:40;;;;;;;11.63;6.30;;;18.20;88.70;;;;;;5030132;28;20920;-75
2021/09/12 08:43:07;;;;;;;9.27;5.67;;;18.30;88.70;;;;;;5025778;28;20235;-74
2021/09/12 08:45:33;;;;;;;9.63;6.70;;;18.30;88.40;;;;;;5029557;28;20479;-75
2021/09/12 08:47:59;;;;;;;10.43;6.13;;;18.40;87.60;;;;;;5034319;28;20418;-76
2021/09/12 08:50:25;;;;;;;11.60;6.53;;;18.50;87.60;;;;;;5037183;28;20997;-76
2021/09/12 08:52:51;;;;;;;8.77;6.13;;;18.60;87.60;;;;;;5033812;28;20517;-75
2021/09/12 08:55:17;;;;;;;7.50;4.70;;;18.60;87.00;;;;;;5032224;28;20217;-76
2021/09/12 08:57:51;;;;;;;8.97;5.53;;;18.80;86.20;;;;;;5033201;28;20270;-75
2021/09/12 09:00:22;;;;;;;8.50;5.50;;;18.80;85.20;;;;;;5032615;28;20510;-76
2021/09/12 09:02:48;;;;;;;7.07;5.03;;;18.80;85.50;;;;;;5033682;28;20425;-75
2021/09/12 09:05:14;;;;;;;7.43;5.03;;;18.90;85.30;;;;;;5032606;28;20441;-76
2021/09/12 09:07:40;;;;;;;9.90;5.57;;;19.00;85.50;;;;;;5034141;28;20434;-75
2021/09/12 09:10:19;;;;;;;10.37;5.17;;;19.10;85.00;;;;;;5033271;28;20427;-76
2021/09/12 09:12:45;;;;;;;7.10;4.90;;;19.20;84.40;;;;;;5034172;28;20529;-76
2021/09/12 09:15:16;;;;;;;7.00;4.60;;;19.20;84.00;;;;;;5043991;28;20505;-77
2021/09/12 09:17:50;;;;;;;8.30;5.83;;;19.20;84.00;;;;;;5033997;28;20183;-77
2021/09/12 09:20:27;;;;;;;6.07;4.37;;;19.30;83.10;;;;;;5038241;28;20932;-77
2021/09/12 09:22:53;;;;;;;9.37;4.80;;;19.30;82.80;;;;;;5035407;28;20530;-77
2021/09/12 09:25:24;;;;;;;11.03;6.87;;;19.30;82.80;;;;;;5037566;28;20981;-79
2021/09/12 09:28:00;;;;;;;6.97;4.47;;;19.40;82.70;;;;;;5045304;28;20465;-77
2021/09/12 09:30:54;;;;;;;7.80;5.00;;;19.50;82.70;;;;;;5036635;28;20430;-78
2021/09/12 09:33:26;;;;;;;7.63;4.17;;;19.60;82.20;;;;;;5037621;28;20438;-77
2021/09/12 09:35:54;;;;;;;6.63;4.43;;;19.70;81.50;;;;;;5037102;28;20609;-80
2021/09/12 09:38:21;;;;;;;6.70;3.83;;;19.80;80.30;;;;;;5035525;28;20957;-79
2021/09/12 09:41:18;;;;;;;3.40;3.20;;;19.80;77.40;;;;;;5036491;28;20439;-75
2021/09/12 09:43:45;;;;;;;4.53;2.90;;;19.80;74.80;;;;;;5045197;28;20470;-83
2021/09/12 09:46:30;;;;;;;3.30;3.10;;;19.90;72.70;;;;;;5038470;28;20440;-82
2021/09/12 09:49:18;;;;;;;4.70;3.03;;;20.00;73.30;;;;;;5038455;28;20499;-83
2021/09/12 09:51:48;;;;;;;5.97;3.97;;;20.00;72.40;;;;;;5032304;28;20432;-83
2021/09/12 09:54:15;;;;;;;6.00;3.80;;;20.30;74.00;;;;;;5035202;28;20506;-83
2021/09/12 09:56:45;;;;;;;6.77;4.00;;;20.40;74.60;;;;;;5039323;28;20412;-82
2021/09/12 09:59:13;;;;;;;6.07;4.10;;;20.50;74.60;;;;;;5039423;28;20421;-83
2021/09/12 10:01:40;;;;;;;6.33;3.37;;;20.50;71.80;;;;;;5038908;28;20436;-78
2021/09/12 10:04:06;;;;;;;4.30;3.27;;;20.60;72.60;;;;;;5038194;28;20503;-76
2021/09/12 10:06:32;;;;;;;4.20;3.60;;;20.70;71.40;;;;;;5037945;28;20483;-79
2021/09/12 10:08:59;;;;;;;7.13;4.50;;;20.60;69.80;;;;;;5037949;28;20435;-77
2021/09/12 10:11:25;;;;;;;5.27;3.73;;;20.70;70.10;;;;;;5028638;28;20522;-78
2021/09/12 10:13:52;;;;;;;4.97;3.57;;;20.50;70.10;;;;;;5028656;28;20456;-77
2021/09/12 10:16:20;;;;;;;6.50;3.63;;;20.70;70.40;;;;;;5036660;28;20452;-78
2021/09/12 10:18:46;;;;;;;6.00;3.50;;;20.70;70.80;;;;;;5039027;28;20435;-76
2021/09/12 10:21:27;;;;;;;5.03;3.80;;;20.60;70.70;;;;;;5038127;28;20510;-78
2021/09/12 10:24:04;;;;;;;4.60;3.43;;;20.70;71.10;;;;;;5039079;28;20424;-79
2021/09/12 10:26:40;;;;;;;5.80;3.40;;;20.90;70.20;;;;;;5038401;28;20858;-78
2021/09/12 10:29:45;;;;;;;5.23;3.80;;;21.10;69.50;;;;;;5036758;28;20545;-79
2021/09/12 10:32:35;;;;;;;4.90;3.60;;;21.00;68.80;;;;;;5035087;28;20421;-75
2021/09/12 10:35:15;;;;;;;6.10;3.50;;;21.00;69.10;;;;;;5034240;28;20966;-78
2021/09/12 10:37:52;;;;;;;5.67;3.27;;;21.20;68.60;;;;;;5036185;28;20951;-78
2021/09/12 10:40:17;;;;;;;4.90;3.43;;;21.50;67.90;;;;;;5038637;28;20469;-78
2021/09/12 10:42:44;;;;;;;4.37;3.60;;;21.80;67.20;;;;;;5037441;28;20418;-77
2021/09/12 10:45:25;;;;;;;4.20;3.20;;;22.00;65.40;;;;;;5037823;28;20203;-79
2021/09/12 10:47:52;;;;;;;7.37;3.60;;;22.20;65.70;;;;;;5034094;28;20419;-78
2021/09/12 10:50:36;;;;;;;4.07;2.93;;;22.60;63.90;;;;;;5037958;28;20446;-79
2021/09/12 10:53:02;;;;;;;8.60;4.37;;;23.20;62.80;;;;;;5033447;28;20425;-79
2021/09/12 10:55:49;;;;;;;6.80;3.33;;;23.80;60.90;;;;;;5036982;28;20544;-78
2021/09/12 10:58:15;;;;;;;5.30;3.67;;;24.20;58.80;;;;;;5038146;28;20432;-80
2021/09/12 11:00:45;;;;;;;5.73;4.40;;;24.40;58.40;;;;;;5036500;28;20414;-77
2021/09/12 11:03:16;;;;;;;5.93;3.60;;;24.40;58.00;;;;;;5038419;28;20404;-79
2021/09/12 11:05:41;;;;;;;4.90;3.80;;;24.70;57.70;;;;;;5034818;28;20437;-77
2021/09/12 11:08:07;;;;;;;5.73;3.87;;;25.20;56.10;;;;;;5037064;28;20967;-78
2021/09/12 11:10:41;;;;;;;4.00;2.93;;;25.40;55.60;;;;;;5037331;28;20190;-79
2021/09/12 11:13:08;;;;;;;4.90;3.30;;;25.80;55.00;;;;;;5033553;28;20197;-79
2021/09/12 11:15:34;;;;;;;4.03;3.33;;;26.10;53.30;;;;;;5038039;28;20501;-80
2021/09/12 11:18:00;;;;;;;3.73;3.37;;;26.50;53.70;;;;;;5036786;28;20493;-79
2021/09/12 11:20:43;;;;;;;3.90;3.03;;;26.70;51.70;;;;;;5039405;28;20814;-78
2021/09/12 11:23:09;;;;;;;6.17;3.73;;;26.60;50.70;;;;;;5035224;28;20430;-78
2021/09/12 11:25:36;;;;;;;3.43;2.80;;;26.40;51.70;;;;;;5032776;28;20451;-77
2021/09/12 11:28:07;;;;;;;3.40;3.30;;;26.10;51.80;;;;;;5032140;28;20453;-76
2021/09/12 11:30:34;;;;;;;4.23;3.33;;;26.10;52.00;;;;;;5034031;28;20446;-78
2021/09/12 11:33:01;;;;;;;4.03;2.50;;;26.20;52.50;;;;;;5034918;28;20433;-79
2021/09/12 11:35:28;;;;;;;7.47;3.40;;;26.50;51.60;;;;;;5032259;28;20482;-78
2021/09/12 11:38:09;;;;;;;4.17;2.70;;;26.50;51.20;;;;;;5027623;28;20696;-78
2021/09/12 11:40:36;;;;;;;4.80;3.10;;;26.30;51.20;;;;;;5029366;28;20431;-77
2021/09/12 11:43:16;;;;;;;4.70;3.23;;;26.50;51.70;;;;;;5025720;28;20526;-78
2021/09/12 11:45:42;;;;;;;3.20;2.23;;;26.70;51.70;;;;;;5032486;28;20449;-77
2021/09/12 11:48:08;;;;;;;3.70;3.00;;;26.80;49.50;;;;;;5034119;28;20451;-79
2021/09/12 11:50:35;;;;;;;4.23;2.80;;;26.60;49.90;;;;;;5031707;28;20457;-79
2021/09/12 11:53:12;;;;;;;3.23;2.77;;;26.60;51.20;;;;;;5032675;28;20436;-82
2021/09/12 11:55:40;;;;;;;4.60;3.00;;;26.90;49.50;;;;;;5033160;28;20468;-80
2021/09/12 11:58:09;;;;;;;3.50;3.30;;;26.80;50.60;;;;;;5034192;28;20438;-79
2021/09/12 12:00:43;;;;;;;5.10;3.10;;;26.60;49.80;;;;;;5036866;28;20425;-79
2021/09/12 12:03:12;;;;;;;6.67;3.63;;;26.20;51.70;;;;;;5034568;28;20423;-77
2021/09/12 12:05:39;;;;;;;6.10;2.90;;;26.30;51.20;;;;;;5039306;28;20825;-79
2021/09/12 12:08:07;;;;;;;4.90;3.23;;;26.30;51.40;;;;;;5041970;28;20450;-79
2021/09/12 12:10:38;;;;;;;8.80;3.40;;;25.80;53.00;;;;;;5034046;28;20422;-78
2021/09/12 12:13:04;;;;;;;5.20;3.40;;;26.00;52.20;;;;;;5030561;28;20496;-77
2021/09/12 12:15:35;;;;;;;7.03;3.23;;;25.60;52.90;;;;;;5031709;28;20466;-76
2021/09/12 12:18:07;;;;;;;4.10;3.03;;;25.80;52.20;;;;;;5033337;28;20781;-79
2021/09/12 12:20:33;;;;;;;6.83;3.87;;;26.00;52.20;;;;;;5026441;28;20845;-78
2021/09/12 12:23:19;;;;;;;4.53;3.37;;;25.80;52.50;;;;;;5031766;28;20454;-78
2021/09/12 12:25:47;;;;;;;4.00;3.20;;;25.50;53.70;;;;;;5032891;28;20438;-77
2021/09/12 12:28:16;;;;;;;5.90;3.73;;;25.30;53.60;;;;;;5033582;28;20416;-77
2021/09/12 12:30:43;;;;;;;5.67;3.47;;;25.00;55.00;;;;;;5031955;28;20433;-78
2021/09/12 12:33:08;;;;;;;4.10;3.53;;;24.80;55.00;;;;;;5031680;28;20426;-77
2021/09/12 12:35:34;;;;;;;6.67;3.20;;;24.60;56.10;;;;;;5031345;28;20476;-77
2021/09/12 12:38:00;;;;;;;5.63;3.40;;;24.90;55.30;;;;;;5032246;28;20699;-77
2021/09/12 12:40:25;;;;;;;6.83;3.73;;;25.00;54.50;;;;;;5015338;28;20184;-80
2021/09/12 12:43:04;;;;;;;4.53;3.47;;;25.30;54.40;;;;;;5035886;28;20314;-79
2021/09/12 12:45:34;;;;;;;4.00;3.43;;;25.90;52.50;;;;;;5031311;28;20760;-80
2021/09/12 12:48:00;;;;;;;4.20;2.80;;;26.10;52.50;;;;;;5031628;28;20481;-77